sensor_id;sensor_type;location;lat;lon;timestamp;temperature;humidity
290;DHT22;13193;48.874;9.086;2022-11-20T00:02:24;6.50;1.00
290;DHT22;13193;48.874;9.086;2022-11-20T00:04:50;6.70;1.00
290;DHT22;13193;48.874;9.086;2022-11-20T00:07:18;6.50;1.00
290;DHT22;13193;48.874;9.086;2022-11-20T00:09:44;6.50;1.00
290;DHT22;13193;48.874;9.086;2022-11-20T00:12:10;7.20;1.00
290;DHT22;13193;48.874;9.086;2022-11-20T00:14:35;6.50;1.00
290;DHT22;13193;48.874;9.086;2022-11-20T00:17:01;6.50;1.00
290;DHT22;13193;48.874;9.086;2022-11-20T00:19:27;6.50;1.00
290;DHT22;13193;48.874;9.086;2022-11-20T00:21:52;6.50;1.00
290;DHT22;13193;48.874;9.086;2022-11-20T00:24:19;6.50;1.00
290;DHT22;13193;48.874;9.086;2022-11-20T00:26:47;6.50;1.00
290;DHT22;13193;48.874;9.086;2022-11-20T00:29:13;6.40;1.00
290;DHT22;13193;48.874;9.086;2022-11-20T00:31:38;6.40;1.00
290;DHT22;13193;48.874;9.086;2022-11-20T00:34:05;6.40;1.00
290;DHT22;13193;48.874;9.086;2022-11-20T00:36:33;6.30;1.00
290;DHT22;13193;48.874;9.086;2022-11-20T00:39:00;6.20;1.00
290;DHT22;13193;48.874;9.086;2022-11-20T00:41:27;6.60;1.00
290;DHT22;13193;48.874;9.086;2022-11-20T00:43:54;6.20;1.00
290;DHT22;13193;48.874;9.086;2022-11-20T00:46:22;6.10;1.00
290;DHT22;13193;48.874;9.086;2022-11-20T00:48:48;6.00;1.00
290;DHT22;13193;48.874;9.086;2022-11-20T00:51:18;6.00;1.00
290;DHT22;13193;48.874;9.086;2022-11-20T00:53:45;6.20;1.00
290;DHT22;13193;48.874;9.086;2022-11-20T00:56:13;6.00;1.00
290;DHT22;13193;48.874;9.086;2022-11-20T00:58:42;5.90;1.00
290;DHT22;13193;48.874;9.086;2022-11-20T01:01:13;6.10;1.00
290;DHT22;13193;48.874;9.086;2022-11-20T01:03:42;5.90;1.00
290;DHT22;13193;48.874;9.086;2022-11-20T01:06:14;5.70;1.00
290;DHT22;13193;48.874;9.086;2022-11-20T01:08:41;5.60;1.00
290;DHT22;13193;48.874;9.086;2022-11-20T01:11:13;5.60;1.00
290;DHT22;13193;48.874;9.086;2022-11-20T01:13:41;5.50;1.00
290;DHT22;13193;48.874;9.086;2022-11-20T01:16:16;5.50;1.00
290;DHT22;13193;48.874;9.086;2022-11-20T01:18:44;5.40;1.00
290;DHT22;13193;48.874;9.086;2022-11-20T01:21:12;5.40;1.00
290;DHT22;13193;48.874;9.086;2022-11-20T01:23:40;5.50;1.00
290;DHT22;13193;48.874;9.086;2022-11-20T01:26:18;5.80;1.00
290;DHT22;13193;48.874;9.086;2022-11-20T01:28:44;5.60;1.00
290;DHT22;13193;48.874;9.086;2022-11-20T01:31:15;5.60;1.00
290;DHT22;13193;48.874;9.086;2022-11-20T01:33:41;5.60;1.00
290;DHT22;13193;48.874;9.086;2022-11-20T01:36:08;5.50;1.00
290;DHT22;13193;48.874;9.086;2022-11-20T01:38:40;5.60;1.00
290;DHT22;13193;48.874;9.086;2022-11-20T01:41:06;5.70;1.00
290;DHT22;13193;48.874;9.086;2022-11-20T01:43:33;5.60;1.00
290;DHT22;13193;48.874;9.086;2022-11-20T01:48:36;5.70;1.00
290;DHT22;13193;48.874;9.086;2022-11-20T01:51:04;6.10;1.00
290;DHT22;13193;48.874;9.086;2022-11-20T01:53:33;5.70;1.00
290;DHT22;13193;48.874;9.086;2022-11-20T01:56:04;5.60;1.00
290;DHT22;13193;48.874;9.086;2022-11-20T01:58:34;5.70;1.00
290;DHT22;13193;48.874;9.086;2022-11-20T02:01:01;5.70;1.00
290;DHT22;13193;48.874;9.086;2022-11-20T02:03:27;6.20;1.00
290;DHT22;13193;48.874;9.086;2022-11-20T02:06:07;5.80;1.00
290;DHT22;13193;48.874;9.086;2022-11-20T02:08:36;5.80;1.00
290;DHT22;13193;48.874;9.086;2022-11-20T02:11:02;5.90;1.00
290;DHT22;13193;48.874;9.086;2022-11-20T02:13:28;5.80;1.00
290;DHT22;13193;48.874;9.086;2022-11-20T02:19:07;6.10;1.00
290;DHT22;13193;48.874;9.086;2022-11-20T02:22:02;6.20;1.00
290;DHT22;13193;48.874;9.086;2022-11-20T02:24:30;6.30;1.00
290;DHT22;13193;48.874;9.086;2022-11-20T02:27:08;6.30;1.00
290;DHT22;13193;48.874;9.086;2022-11-20T02:29:48;6.40;1.00
290;DHT22;13193;48.874;9.086;2022-11-20T02:32:28;7.20;1.00
290;DHT22;13193;48.874;9.086;2022-11-20T02:34:55;6.50;1.00
290;DHT22;13193;48.874;9.086;2022-11-20T02:37:22;6.60;1.00
290;DHT22;13193;48.874;9.086;2022-11-20T02:39:51;7.00;1.00
290;DHT22;13193;48.874;9.086;2022-11-20T02:42:18;6.90;1.00
290;DHT22;13193;48.874;9.086;2022-11-20T02:44:44;6.80;1.00
290;DHT22;13193;48.874;9.086;2022-11-20T02:47:09;6.80;1.00
290;DHT22;13193;48.874;9.086;2022-11-20T02:49:35;6.80;1.00
290;DHT22;13193;48.874;9.086;2022-11-20T02:52:02;6.90;1.00
290;DHT22;13193;48.874;9.086;2022-11-20T02:54:27;6.90;1.00
290;DHT22;13193;48.874;9.086;2022-11-20T02:56:53;7.10;1.00
290;DHT22;13193;48.874;9.086;2022-11-20T02:59:19;7.40;1.00
290;DHT22;13193;48.874;9.086;2022-11-20T03:01:44;6.90;1.00
290;DHT22;13193;48.874;9.086;2022-11-20T03:04:10;7.00;1.00
290;DHT22;13193;48.874;9.086;2022-11-20T03:06:36;6.80;1.00
290;DHT22;13193;48.874;9.086;2022-11-20T03:09:01;6.90;1.00
290;DHT22;13193;48.874;9.086;2022-11-20T03:11:28;7.00;1.00
290;DHT22;13193;48.874;9.086;2022-11-20T03:13:55;7.00;1.00
290;DHT22;13193;48.874;9.086;2022-11-20T03:16:22;7.00;1.00
290;DHT22;13193;48.874;9.086;2022-11-20T03:18:51;7.00;1.00
290;DHT22;13193;48.874;9.086;2022-11-20T03:21:17;7.00;1.00
290;DHT22;13193;48.874;9.086;2022-11-20T03:23:43;7.00;1.00
290;DHT22;13193;48.874;9.086;2022-11-20T03:26:18;7.00;1.00
290;DHT22;13193;48.874;9.086;2022-11-20T03:28:49;6.90;1.00
290;DHT22;13193;48.874;9.086;2022-11-20T03:31:17;6.80;1.00
290;DHT22;13193;48.874;9.086;2022-11-20T03:33:43;6.80;1.00
290;DHT22;13193;48.874;9.086;2022-11-20T03:36:12;6.80;1.00
290;DHT22;13193;48.874;9.086;2022-11-20T03:38:38;6.80;1.00
290;DHT22;13193;48.874;9.086;2022-11-20T03:41:09;6.80;1.00
290;DHT22;13193;48.874;9.086;2022-11-20T03:43:35;6.90;1.00
290;DHT22;13193;48.874;9.086;2022-11-20T03:46:01;6.90;1.00
290;DHT22;13193;48.874;9.086;2022-11-20T03:48:27;6.80;1.00
290;DHT22;13193;48.874;9.086;2022-11-20T03:51:06;6.80;1.00
290;DHT22;13193;48.874;9.086;2022-11-20T03:53:39;7.30;1.00
290;DHT22;13193;48.874;9.086;2022-11-20T03:56:05;6.70;1.00
290;DHT22;13193;48.874;9.086;2022-11-20T03:58:33;6.70;1.00
290;DHT22;13193;48.874;9.086;2022-11-20T04:01:04;6.60;1.00
290;DHT22;13193;48.874;9.086;2022-11-20T04:03:31;6.70;1.00
290;DHT22;13193;48.874;9.086;2022-11-20T04:06:08;6.90;1.00
290;DHT22;13193;48.874;9.086;2022-11-20T04:08:34;6.70;1.00
290;DHT22;13193;48.874;9.086;2022-11-20T04:11:14;6.70;1.00
290;DHT22;13193;48.874;9.086;2022-11-20T04:13:41;6.60;1.00
290;DHT22;13193;48.874;9.086;2022-11-20T04:16:09;6.60;1.00
290;DHT22;13193;48.874;9.086;2022-11-20T04:18:35;6.50;1.00
290;DHT22;13193;48.874;9.086;2022-11-20T04:21:02;6.50;1.00
290;DHT22;13193;48.874;9.086;2022-11-20T04:23:29;6.50;1.00
290;DHT22;13193;48.874;9.086;2022-11-20T04:25:59;6.40;1.00
290;DHT22;13193;48.874;9.086;2022-11-20T04:28:25;6.30;1.00
290;DHT22;13193;48.874;9.086;2022-11-20T04:30:52;6.20;1.00
290;DHT22;13193;48.874;9.086;2022-11-20T04:33:18;6.70;1.00
290;DHT22;13193;48.874;9.086;2022-11-20T04:35:45;6.10;1.00
290;DHT22;13193;48.874;9.086;2022-11-20T04:38:13;6.10;1.00
290;DHT22;13193;48.874;9.086;2022-11-20T04:40:40;6.20;1.00
290;DHT22;13193;48.874;9.086;2022-11-20T04:43:07;6.40;1.00
290;DHT22;13193;48.874;9.086;2022-11-20T04:45:32;6.20;1.00
290;DHT22;13193;48.874;9.086;2022-11-20T04:47:58;6.60;1.00
290;DHT22;13193;48.874;9.086;2022-11-20T04:50:23;6.30;1.00
290;DHT22;13193;48.874;9.086;2022-11-20T04:52:49;6.60;1.00
290;DHT22;13193;48.874;9.086;2022-11-20T04:55:14;6.40;1.00
290;DHT22;13193;48.874;9.086;2022-11-20T04:57:40;6.40;1.00
290;DHT22;13193;48.874;9.086;2022-11-20T05:00:07;6.40;1.00
290;DHT22;13193;48.874;9.086;2022-11-20T05:02:33;6.40;1.00
290;DHT22;13193;48.874;9.086;2022-11-20T05:04:59;6.40;1.00
290;DHT22;13193;48.874;9.086;2022-11-20T05:07:25;6.50;1.00
290;DHT22;13193;48.874;9.086;2022-11-20T05:09:51;6.50;1.00
290;DHT22;13193;48.874;9.086;2022-11-20T05:12:17;6.90;1.00
290;DHT22;13193;48.874;9.086;2022-11-20T05:14:42;6.70;1.00
290;DHT22;13193;48.874;9.086;2022-11-20T05:17:10;6.70;1.00
290;DHT22;13193;48.874;9.086;2022-11-20T05:19:37;6.90;1.00
290;DHT22;13193;48.874;9.086;2022-11-20T05:22:04;6.60;1.00
290;DHT22;13193;48.874;9.086;2022-11-20T05:24:32;6.60;1.00
290;DHT22;13193;48.874;9.086;2022-11-20T05:26:57;6.70;1.00
290;DHT22;13193;48.874;9.086;2022-11-20T05:29:23;6.40;1.00
290;DHT22;13193;48.874;9.086;2022-11-20T05:31:48;6.70;1.00
290;DHT22;13193;48.874;9.086;2022-11-20T05:34:14;6.80;1.00
290;DHT22;13193;48.874;9.086;2022-11-20T05:36:40;6.80;1.00
290;DHT22;13193;48.874;9.086;2022-11-20T05:39:05;7.50;1.00
290;DHT22;13193;48.874;9.086;2022-11-20T05:41:33;6.70;1.00
290;DHT22;13193;48.874;9.086;2022-11-20T05:43:58;7.10;1.00
290;DHT22;13193;48.874;9.086;2022-11-20T05:46:24;7.00;1.00
290;DHT22;13193;48.874;9.086;2022-11-20T05:48:50;6.90;1.00
290;DHT22;13193;48.874;9.086;2022-11-20T05:51:18;6.90;1.00
290;DHT22;13193;48.874;9.086;2022-11-20T05:53:46;6.90;1.00
290;DHT22;13193;48.874;9.086;2022-11-20T05:56:16;6.80;1.00
290;DHT22;13193;48.874;9.086;2022-11-20T05:58:43;6.90;1.00
290;DHT22;13193;48.874;9.086;2022-11-20T06:01:12;6.90;1.00
290;DHT22;13193;48.874;9.086;2022-11-20T06:06:40;7.00;1.00
290;DHT22;13193;48.874;9.086;2022-11-20T06:09:07;7.00;1.00
290;DHT22;13193;48.874;9.086;2022-11-20T06:11:32;7.00;1.00
290;DHT22;13193;48.874;9.086;2022-11-20T06:13:59;6.90;1.00
290;DHT22;13193;48.874;9.086;2022-11-20T06:16:25;7.00;1.00
290;DHT22;13193;48.874;9.086;2022-11-20T06:18:51;6.80;1.00
290;DHT22;13193;48.874;9.086;2022-11-20T06:21:19;6.90;1.00
290;DHT22;13193;48.874;9.086;2022-11-20T06:23:45;6.90;1.00
290;DHT22;13193;48.874;9.086;2022-11-20T06:26:17;7.40;1.00
290;DHT22;13193;48.874;9.086;2022-11-20T06:28:43;6.80;1.00
290;DHT22;13193;48.874;9.086;2022-11-20T06:31:11;7.00;1.00
290;DHT22;13193;48.874;9.086;2022-11-20T06:33:37;7.30;1.00
290;DHT22;13193;48.874;9.086;2022-11-20T06:36:04;6.90;1.00
290;DHT22;13193;48.874;9.086;2022-11-20T06:38:30;6.80;1.00
290;DHT22;13193;48.874;9.086;2022-11-20T06:40:56;7.50;1.00
290;DHT22;13193;48.874;9.086;2022-11-20T06:43:22;6.80;1.00
290;DHT22;13193;48.874;9.086;2022-11-20T06:45:53;7.50;1.00
290;DHT22;13193;48.874;9.086;2022-11-20T06:48:19;6.70;1.00
290;DHT22;13193;48.874;9.086;2022-11-20T06:50:45;6.70;1.00
290;DHT22;13193;48.874;9.086;2022-11-20T06:53:11;6.80;1.00
290;DHT22;13193;48.874;9.086;2022-11-20T06:55:36;6.80;1.00
290;DHT22;13193;48.874;9.086;2022-11-20T06:58:03;6.90;1.00
290;DHT22;13193;48.874;9.086;2022-11-20T07:00:28;6.90;1.00
290;DHT22;13193;48.874;9.086;2022-11-20T07:02:54;6.90;1.00
290;DHT22;13193;48.874;9.086;2022-11-20T07:05:21;7.10;1.00
290;DHT22;13193;48.874;9.086;2022-11-20T07:07:47;7.00;1.00
290;DHT22;13193;48.874;9.086;2022-11-20T07:10:12;7.00;1.00
290;DHT22;13193;48.874;9.086;2022-11-20T07:12:38;7.10;1.00
290;DHT22;13193;48.874;9.086;2022-11-20T07:15:04;7.70;1.00
290;DHT22;13193;48.874;9.086;2022-11-20T07:17:31;7.20;1.00
290;DHT22;13193;48.874;9.086;2022-11-20T07:19:56;7.30;1.00
290;DHT22;13193;48.874;9.086;2022-11-20T07:22:22;7.30;1.00
290;DHT22;13193;48.874;9.086;2022-11-20T07:24:48;7.40;1.00
290;DHT22;13193;48.874;9.086;2022-11-20T07:27:20;7.40;1.00
290;DHT22;13193;48.874;9.086;2022-11-20T07:29:45;7.50;1.00
290;DHT22;13193;48.874;9.086;2022-11-20T07:32:11;7.80;1.00
290;DHT22;13193;48.874;9.086;2022-11-20T07:34:37;7.70;1.00
290;DHT22;13193;48.874;9.086;2022-11-20T07:37:02;7.80;1.00
290;DHT22;13193;48.874;9.086;2022-11-20T07:39:28;7.90;1.00
290;DHT22;13193;48.874;9.086;2022-11-20T07:41:53;8.20;1.00
290;DHT22;13193;48.874;9.086;2022-11-20T07:44:19;8.00;1.00
290;DHT22;13193;48.874;9.086;2022-11-20T07:46:46;8.40;1.00
290;DHT22;13193;48.874;9.086;2022-11-20T07:49:14;8.10;1.00
290;DHT22;13193;48.874;9.086;2022-11-20T07:51:39;8.10;1.00
290;DHT22;13193;48.874;9.086;2022-11-20T07:54:05;8.10;1.00
290;DHT22;13193;48.874;9.086;2022-11-20T07:56:30;8.20;1.00
290;DHT22;13193;48.874;9.086;2022-11-20T07:58:56;8.20;1.00
290;DHT22;13193;48.874;9.086;2022-11-20T08:01:22;8.30;1.00
290;DHT22;13193;48.874;9.086;2022-11-20T08:03:47;8.40;1.00
290;DHT22;13193;48.874;9.086;2022-11-20T08:06:13;8.70;1.00
290;DHT22;13193;48.874;9.086;2022-11-20T08:08:40;8.70;1.00
290;DHT22;13193;48.874;9.086;2022-11-20T08:11:09;8.90;1.00
290;DHT22;13193;48.874;9.086;2022-11-20T08:13:53;9.10;1.00
290;DHT22;13193;48.874;9.086;2022-11-20T08:16:37;9.70;1.00
290;DHT22;13193;48.874;9.086;2022-11-20T08:19:04;9.60;1.00
290;DHT22;13193;48.874;9.086;2022-11-20T08:21:30;9.60;1.00
290;DHT22;13193;48.874;9.086;2022-11-20T08:23:57;9.90;1.00
290;DHT22;13193;48.874;9.086;2022-11-20T08:26:24;9.90;1.00
290;DHT22;13193;48.874;9.086;2022-11-20T08:28:54;10.00;1.00
290;DHT22;13193;48.874;9.086;2022-11-20T08:31:20;10.00;1.00
290;DHT22;13193;48.874;9.086;2022-11-20T08:33:46;10.00;1.00
290;DHT22;13193;48.874;9.086;2022-11-20T08:36:13;10.10;1.00
290;DHT22;13193;48.874;9.086;2022-11-20T08:38:39;10.00;1.00
290;DHT22;13193;48.874;9.086;2022-11-20T08:41:05;10.10;1.00
290;DHT22;13193;48.874;9.086;2022-11-20T08:44:07;10.10;1.00
290;DHT22;13193;48.874;9.086;2022-11-20T08:46:36;10.20;1.00
290;DHT22;13193;48.874;9.086;2022-11-20T08:49:04;10.00;1.00
290;DHT22;13193;48.874;9.086;2022-11-20T08:51:30;10.00;1.00
290;DHT22;13193;48.874;9.086;2022-11-20T08:53:55;10.00;1.00
290;DHT22;13193;48.874;9.086;2022-11-20T08:56:21;9.90;1.00
290;DHT22;13193;48.874;9.086;2022-11-20T08:58:47;9.80;1.00
290;DHT22;13193;48.874;9.086;2022-11-20T09:01:12;10.20;1.00
290;DHT22;13193;48.874;9.086;2022-11-20T09:03:38;9.80;1.00
290;DHT22;13193;48.874;9.086;2022-11-20T09:06:06;10.20;1.00
290;DHT22;13193;48.874;9.086;2022-11-20T09:08:32;10.00;1.00
290;DHT22;13193;48.874;9.086;2022-11-20T09:10:58;10.00;1.00
290;DHT22;13193;48.874;9.086;2022-11-20T09:13:26;10.10;1.00
290;DHT22;13193;48.874;9.086;2022-11-20T09:16:00;10.00;1.00
290;DHT22;13193;48.874;9.086;2022-11-20T09:18:27;10.00;1.00
290;DHT22;13193;48.874;9.086;2022-11-20T09:21:01;10.10;1.00
290;DHT22;13193;48.874;9.086;2022-11-20T09:23:27;10.10;1.00
290;DHT22;13193;48.874;9.086;2022-11-20T09:25:56;10.30;1.00
290;DHT22;13193;48.874;9.086;2022-11-20T09:28:25;9.60;1.00
290;DHT22;13193;48.874;9.086;2022-11-20T09:30:53;10.00;1.00
290;DHT22;13193;48.874;9.086;2022-11-20T09:33:18;9.90;1.00
290;DHT22;13193;48.874;9.086;2022-11-20T09:35:44;9.90;1.00
290;DHT22;13193;48.874;9.086;2022-11-20T09:38:10;9.90;1.00
290;DHT22;13193;48.874;9.086;2022-11-20T09:40:40;9.90;1.00
290;DHT22;13193;48.874;9.086;2022-11-20T09:51:41;9.80;1.00
290;DHT22;13193;48.874;9.086;2022-11-20T09:54:21;9.80;1.00
290;DHT22;13193;48.874;9.086;2022-11-20T09:56:53;9.70;1.00
290;DHT22;13193;48.874;9.086;2022-11-20T09:59:38;9.90;1.00
290;DHT22;13193;48.874;9.086;2022-11-20T10:02:27;9.60;1.00
290;DHT22;13193;48.874;9.086;2022-11-20T10:05:18;9.60;1.00
290;DHT22;13193;48.874;9.086;2022-11-20T10:15:58;9.70;1.00
290;DHT22;13193;48.874;9.086;2022-11-20T10:21:29;9.60;1.00
290;DHT22;13193;48.874;9.086;2022-11-20T10:31:42;9.90;1.00
290;DHT22;13193;48.874;9.086;2022-11-20T10:37:05;9.90;1.00
290;DHT22;13193;48.874;9.086;2022-11-20T10:39:46;9.90;1.00
290;DHT22;13193;48.874;9.086;2022-11-20T10:42:31;9.80;1.00
290;DHT22;13193;48.874;9.086;2022-11-20T10:45:32;9.70;1.00
290;DHT22;13193;48.874;9.086;2022-11-20T10:50:29;9.60;1.00
290;DHT22;13193;48.874;9.086;2022-11-20T10:56:11;9.40;1.00
290;DHT22;13193;48.874;9.086;2022-11-20T11:01:26;9.90;1.00
290;DHT22;13193;48.874;9.086;2022-11-20T11:03:53;9.70;1.00
290;DHT22;13193;48.874;9.086;2022-11-20T11:06:36;9.80;1.00
290;DHT22;13193;48.874;9.086;2022-11-20T11:09:10;10.00;1.00
290;DHT22;13193;48.874;9.086;2022-11-20T11:11:38;10.10;1.00
290;DHT22;13193;48.874;9.086;2022-11-20T11:14:12;10.10;1.00
290;DHT22;13193;48.874;9.086;2022-11-20T11:16:55;10.20;1.00
290;DHT22;13193;48.874;9.086;2022-11-20T11:19:22;10.50;1.00
290;DHT22;13193;48.874;9.086;2022-11-20T11:21:54;10.50;1.00
290;DHT22;13193;48.874;9.086;2022-11-20T11:24:30;10.60;1.00
290;DHT22;13193;48.874;9.086;2022-11-20T11:27:03;10.80;1.00
290;DHT22;13193;48.874;9.086;2022-11-20T11:29:36;10.80;1.00
290;DHT22;13193;48.874;9.086;2022-11-20T11:32:28;11.20;1.00
290;DHT22;13193;48.874;9.086;2022-11-20T11:35:05;10.80;1.00
290;DHT22;13193;48.874;9.086;2022-11-20T11:37:36;10.70;1.00
290;DHT22;13193;48.874;9.086;2022-11-20T11:40:05;10.60;1.00
290;DHT22;13193;48.874;9.086;2022-11-20T11:42:32;10.50;1.00
290;DHT22;13193;48.874;9.086;2022-11-20T11:45:00;10.40;1.00
290;DHT22;13193;48.874;9.086;2022-11-20T11:50:22;10.40;1.00
290;DHT22;13193;48.874;9.086;2022-11-20T11:52:51;10.50;1.00
290;DHT22;13193;48.874;9.086;2022-11-20T11:55:45;10.70;1.00
290;DHT22;13193;48.874;9.086;2022-11-20T12:04:02;10.50;1.00
290;DHT22;13193;48.874;9.086;2022-11-20T12:06:31;10.40;1.00
290;DHT22;13193;48.874;9.086;2022-11-20T12:09:08;10.30;1.00
290;DHT22;13193;48.874;9.086;2022-11-20T12:11:44;10.20;1.00
290;DHT22;13193;48.874;9.086;2022-11-20T12:16:37;10.10;1.00
290;DHT22;13193;48.874;9.086;2022-11-20T12:19:11;10.10;1.00
290;DHT22;13193;48.874;9.086;2022-11-20T12:30:04;10.30;1.00
290;DHT22;13193;48.874;9.086;2022-11-20T12:38:06;10.20;1.00
290;DHT22;13193;48.874;9.086;2022-11-20T12:43:37;10.10;1.00
290;DHT22;13193;48.874;9.086;2022-11-20T13:00:11;9.80;1.00
290;DHT22;13193;48.874;9.086;2022-11-20T13:03:00;9.80;1.00
290;DHT22;13193;48.874;9.086;2022-11-20T13:08:43;9.70;1.00
290;DHT22;13193;48.874;9.086;2022-11-20T13:14:04;9.60;1.00
290;DHT22;13193;48.874;9.086;2022-11-20T13:19:34;9.80;1.00
290;DHT22;13193;48.874;9.086;2022-11-20T13:22:00;9.80;1.00
290;DHT22;13193;48.874;9.086;2022-11-20T13:24:28;10.00;1.00
290;DHT22;13193;48.874;9.086;2022-11-20T13:29:35;10.20;1.00
290;DHT22;13193;48.874;9.086;2022-11-20T13:32:13;10.40;1.00
290;DHT22;13193;48.874;9.086;2022-11-20T13:37:35;10.70;1.00
290;DHT22;13193;48.874;9.086;2022-11-20T13:42:45;10.90;1.00
290;DHT22;13193;48.874;9.086;2022-11-20T13:45:25;10.80;1.00
290;DHT22;13193;48.874;9.086;2022-11-20T13:47:52;10.80;1.00
290;DHT22;13193;48.874;9.086;2022-11-20T13:50:19;11.00;1.00
290;DHT22;13193;48.874;9.086;2022-11-20T13:55:40;10.70;1.00
290;DHT22;13193;48.874;9.086;2022-11-20T14:01:17;10.60;1.00
290;DHT22;13193;48.874;9.086;2022-11-20T14:03:47;10.60;1.00
290;DHT22;13193;48.874;9.086;2022-11-20T14:06:32;10.50;1.00
290;DHT22;13193;48.874;9.086;2022-11-20T14:09:00;10.40;1.00
290;DHT22;13193;48.874;9.086;2022-11-20T14:11:30;10.30;1.00
290;DHT22;13193;48.874;9.086;2022-11-20T14:14:02;10.30;1.00
290;DHT22;13193;48.874;9.086;2022-11-20T14:16:34;10.20;1.00
290;DHT22;13193;48.874;9.086;2022-11-20T14:19:36;10.20;1.00
290;DHT22;13193;48.874;9.086;2022-11-20T14:24:42;10.10;1.00
290;DHT22;13193;48.874;9.086;2022-11-20T14:27:18;10.00;1.00
290;DHT22;13193;48.874;9.086;2022-11-20T14:29:46;10.00;1.00
290;DHT22;13193;48.874;9.086;2022-11-20T14:32:15;10.00;1.00
290;DHT22;13193;48.874;9.086;2022-11-20T14:34:44;10.30;1.00
290;DHT22;13193;48.874;9.086;2022-11-20T14:37:12;9.80;1.00
290;DHT22;13193;48.874;9.086;2022-11-20T14:39:42;9.80;1.00
290;DHT22;13193;48.874;9.086;2022-11-20T14:42:22;9.80;1.00
290;DHT22;13193;48.874;9.086;2022-11-20T14:44:50;9.70;1.00
290;DHT22;13193;48.874;9.086;2022-11-20T14:47:19;9.70;1.00
290;DHT22;13193;48.874;9.086;2022-11-20T14:49:48;9.60;1.00
290;DHT22;13193;48.874;9.086;2022-11-20T14:52:20;9.50;1.00
290;DHT22;13193;48.874;9.086;2022-11-20T14:54:55;9.40;1.00
290;DHT22;13193;48.874;9.086;2022-11-20T14:57:29;9.30;1.00
290;DHT22;13193;48.874;9.086;2022-11-20T15:02:46;9.10;1.00
290;DHT22;13193;48.874;9.086;2022-11-20T15:05:13;9.00;1.00
290;DHT22;13193;48.874;9.086;2022-11-20T15:07:42;8.90;1.00
290;DHT22;13193;48.874;9.086;2022-11-20T15:12:48;8.70;1.00
290;DHT22;13193;48.874;9.086;2022-11-20T15:15:25;8.60;1.00
290;DHT22;13193;48.874;9.086;2022-11-20T15:17:54;8.40;1.00
290;DHT22;13193;48.874;9.086;2022-11-20T15:20:25;8.30;1.00
290;DHT22;13193;48.874;9.086;2022-11-20T15:22:51;8.30;1.00
290;DHT22;13193;48.874;9.086;2022-11-20T15:25:18;8.60;1.00
290;DHT22;13193;48.874;9.086;2022-11-20T15:27:45;8.10;1.00
290;DHT22;13193;48.874;9.086;2022-11-20T15:30:19;8.20;1.00
290;DHT22;13193;48.874;9.086;2022-11-20T15:32:46;7.90;1.00
290;DHT22;13193;48.874;9.086;2022-11-20T15:35:12;7.80;1.00
290;DHT22;13193;48.874;9.086;2022-11-20T15:37:39;7.70;1.00
290;DHT22;13193;48.874;9.086;2022-11-20T15:40:05;7.60;1.00
290;DHT22;13193;48.874;9.086;2022-11-20T15:42:32;7.50;1.00
290;DHT22;13193;48.874;9.086;2022-11-20T15:44:57;7.40;1.00
290;DHT22;13193;48.874;9.086;2022-11-20T15:47:33;7.10;1.00
290;DHT22;13193;48.874;9.086;2022-11-20T15:49:59;7.30;1.00
290;DHT22;13193;48.874;9.086;2022-11-20T15:52:25;7.20;1.00
290;DHT22;13193;48.874;9.086;2022-11-20T15:54:50;7.20;1.00
290;DHT22;13193;48.874;9.086;2022-11-20T15:57:16;7.30;1.00
290;DHT22;13193;48.874;9.086;2022-11-20T15:59:41;7.20;1.00
290;DHT22;13193;48.874;9.086;2022-11-20T16:02:13;7.20;1.00
290;DHT22;13193;48.874;9.086;2022-11-20T16:04:39;7.20;1.00
290;DHT22;13193;48.874;9.086;2022-11-20T16:07:06;7.10;1.00
290;DHT22;13193;48.874;9.086;2022-11-20T16:09:32;7.40;1.00
290;DHT22;13193;48.874;9.086;2022-11-20T16:11:58;7.60;1.00
290;DHT22;13193;48.874;9.086;2022-11-20T16:14:27;7.00;1.00
290;DHT22;13193;48.874;9.086;2022-11-20T16:17:12;7.00;1.00
290;DHT22;13193;48.874;9.086;2022-11-20T16:19:39;7.00;1.00
290;DHT22;13193;48.874;9.086;2022-11-20T16:22:06;7.00;1.00
290;DHT22;13193;48.874;9.086;2022-11-20T16:24:32;7.10;1.00
290;DHT22;13193;48.874;9.086;2022-11-20T16:26:57;7.00;1.00
290;DHT22;13193;48.874;9.086;2022-11-20T16:29:23;7.00;1.00
290;DHT22;13193;48.874;9.086;2022-11-20T16:31:48;7.00;1.00
290;DHT22;13193;48.874;9.086;2022-11-20T16:34:16;7.20;1.00
290;DHT22;13193;48.874;9.086;2022-11-20T16:36:42;6.90;1.00
290;DHT22;13193;48.874;9.086;2022-11-20T16:39:10;6.90;1.00
290;DHT22;13193;48.874;9.086;2022-11-20T16:41:36;7.00;1.00
290;DHT22;13193;48.874;9.086;2022-11-20T16:44:06;7.10;1.00
290;DHT22;13193;48.874;9.086;2022-11-20T16:46:33;7.20;1.00
290;DHT22;13193;48.874;9.086;2022-11-20T16:49:04;7.10;1.00
290;DHT22;13193;48.874;9.086;2022-11-20T16:51:34;7.30;1.00
290;DHT22;13193;48.874;9.086;2022-11-20T16:54:01;7.30;1.00
290;DHT22;13193;48.874;9.086;2022-11-20T16:56:30;7.30;1.00
290;DHT22;13193;48.874;9.086;2022-11-20T16:58:58;7.40;1.00
290;DHT22;13193;48.874;9.086;2022-11-20T17:01:25;7.40;1.00
290;DHT22;13193;48.874;9.086;2022-11-20T17:04:09;7.40;1.00
290;DHT22;13193;48.874;9.086;2022-11-20T17:06:37;7.60;1.00
290;DHT22;13193;48.874;9.086;2022-11-20T17:09:05;8.10;1.00
290;DHT22;13193;48.874;9.086;2022-11-20T17:11:33;8.10;1.00
290;DHT22;13193;48.874;9.086;2022-11-20T17:14:00;7.80;1.00
290;DHT22;13193;48.874;9.086;2022-11-20T17:16:27;7.50;1.00
290;DHT22;13193;48.874;9.086;2022-11-20T17:18:56;7.50;1.00
290;DHT22;13193;48.874;9.086;2022-11-20T17:21:23;7.50;1.00
290;DHT22;13193;48.874;9.086;2022-11-20T17:23:51;7.40;1.00
290;DHT22;13193;48.874;9.086;2022-11-20T17:26:22;7.50;1.00
290;DHT22;13193;48.874;9.086;2022-11-20T17:29:08;7.90;1.00
290;DHT22;13193;48.874;9.086;2022-11-20T17:31:37;7.40;1.00
290;DHT22;13193;48.874;9.086;2022-11-20T17:34:22;7.50;1.00
290;DHT22;13193;48.874;9.086;2022-11-20T17:36:47;7.50;1.00
290;DHT22;13193;48.874;9.086;2022-11-20T17:39:15;7.50;1.00
290;DHT22;13193;48.874;9.086;2022-11-20T17:41:42;7.50;1.00
290;DHT22;13193;48.874;9.086;2022-11-20T17:44:12;8.20;1.00
290;DHT22;13193;48.874;9.086;2022-11-20T17:46:44;7.60;1.00
290;DHT22;13193;48.874;9.086;2022-11-20T17:49:13;7.60;1.00
290;DHT22;13193;48.874;9.086;2022-11-20T17:51:39;7.70;1.00
290;DHT22;13193;48.874;9.086;2022-11-20T17:54:12;7.60;1.00
290;DHT22;13193;48.874;9.086;2022-11-20T17:56:38;7.70;1.00
290;DHT22;13193;48.874;9.086;2022-11-20T17:59:23;7.60;1.00
290;DHT22;13193;48.874;9.086;2022-11-20T18:01:49;7.70;1.00
290;DHT22;13193;48.874;9.086;2022-11-20T18:04:16;7.80;1.00
290;DHT22;13193;48.874;9.086;2022-11-20T18:06:43;7.70;1.00
290;DHT22;13193;48.874;9.086;2022-11-20T18:09:10;7.90;1.00
290;DHT22;13193;48.874;9.086;2022-11-20T18:11:38;7.80;1.00
290;DHT22;13193;48.874;9.086;2022-11-20T18:14:10;7.50;1.00
290;DHT22;13193;48.874;9.086;2022-11-20T18:17:09;8.00;1.00
290;DHT22;13193;48.874;9.086;2022-11-20T18:19:46;8.00;1.00
290;DHT22;13193;48.874;9.086;2022-11-20T18:22:14;8.00;1.00
290;DHT22;13193;48.874;9.086;2022-11-20T18:24:40;8.00;1.00
290;DHT22;13193;48.874;9.086;2022-11-20T18:27:11;8.00;1.00
290;DHT22;13193;48.874;9.086;2022-11-20T18:29:37;8.00;1.00
290;DHT22;13193;48.874;9.086;2022-11-20T18:32:04;8.00;1.00
290;DHT22;13193;48.874;9.086;2022-11-20T18:34:29;8.00;1.00
290;DHT22;13193;48.874;9.086;2022-11-20T18:36:57;8.00;1.00
290;DHT22;13193;48.874;9.086;2022-11-20T18:39:23;8.00;1.00
290;DHT22;13193;48.874;9.086;2022-11-20T18:41:49;8.40;1.00
290;DHT22;13193;48.874;9.086;2022-11-20T18:44:35;8.10;1.00
290;DHT22;13193;48.874;9.086;2022-11-20T18:47:21;8.20;1.00